createdAt,value
2022-10-18T00:01:08.825Z,65.99
2022-10-18T00:06:11.210Z,66.02
2022-10-18T00:08:39.936Z,66.09
2022-10-18T00:11:08.177Z,66.10
2022-10-18T00:13:37.077Z,66.08
2022-10-18T00:16:10.154Z,66.08
2022-10-18T00:18:38.120Z,66.19
2022-10-18T00:21:09.959Z,66.14
2022-10-18T00:23:38.051Z,66.14
2022-10-18T00:26:11.857Z,66.11
2022-10-18T00:28:41.089Z,66.20
2022-10-18T00:31:27.456Z,66.25
2022-10-18T00:33:58.292Z,66.53
2022-10-18T00:36:29.003Z,66.44
2022-10-18T00:38:57.899Z,66.50
2022-10-18T00:41:31.006Z,66.65
2022-10-18T00:44:26.728Z,66.60
2022-10-18T00:47:08.724Z,66.55
2022-10-18T00:49:42.734Z,66.68
2022-10-18T00:52:35.791Z,66.76
2022-10-18T00:55:06.498Z,66.71
2022-10-18T00:57:35.501Z,66.70
2022-10-18T01:00:09.865Z,66.88
2022-10-18T01:02:40.366Z,66.83
2022-10-18T01:05:10.916Z,66.92
2022-10-18T01:08:28.425Z,66.81
2022-10-18T01:11:05.303Z,66.85
2022-10-18T01:13:52.116Z,66.80
2022-10-18T01:16:32.781Z,66.84
2022-10-18T01:19:16.109Z,66.83
2022-10-18T01:21:54.528Z,66.79
2022-10-18T01:25:00.793Z,66.86
2022-10-18T01:28:13.610Z,66.87
2022-10-18T01:30:50.592Z,66.81
2022-10-18T01:33:43.960Z,66.82
2022-10-18T01:36:15.101Z,66.72
2022-10-18T01:38:45.081Z,66.64
2022-10-18T01:41:16.172Z,67.00
2022-10-18T01:43:46.994Z,66.92
2022-10-18T01:46:20.387Z,66.88
2022-10-18T01:48:49.380Z,66.97
2022-10-18T01:51:29.023Z,66.72
2022-10-18T01:53:57.301Z,66.85
2022-10-18T01:56:28.770Z,67.01
2022-10-18T01:59:34.709Z,66.96
2022-10-18T02:02:08.720Z,66.72
2022-10-18T02:04:51.846Z,66.94
2022-10-18T02:07:34.560Z,66.96
2022-10-18T02:12:51.695Z,66.96
2022-10-18T02:15:38.301Z,66.85
2022-10-18T02:18:12.515Z,66.84
2022-10-18T02:20:40.487Z,66.73
2022-10-18T02:23:10.911Z,66.75
2022-10-18T02:25:39.393Z,66.86
2022-10-18T02:28:07.685Z,66.92
2022-10-18T02:30:44.853Z,66.77
2022-10-18T02:33:31.667Z,66.83
2022-10-18T02:36:24.107Z,66.74
2022-10-18T02:38:56.376Z,66.89
2022-10-18T02:41:27.007Z,66.74
2022-10-18T02:43:55.079Z,66.78
2022-10-18T02:46:23.826Z,66.82
2022-10-18T02:48:52.041Z,66.91
2022-10-18T02:51:20.112Z,66.99
2022-10-18T02:53:48.082Z,66.92
2022-10-18T02:56:16.869Z,66.63
2022-10-18T02:58:44.941Z,66.79
2022-10-18T03:01:13.074Z,66.88
2022-10-18T03:03:41.186Z,66.89
2022-10-18T03:06:09.461Z,66.83
2022-10-18T03:08:38.045Z,66.76
2022-10-18T03:11:06.427Z,66.79
2022-10-18T03:13:34.626Z,66.88
2022-10-18T03:16:02.876Z,66.78
2022-10-18T03:18:31.048Z,66.90
2022-10-18T03:21:03.830Z,66.97
2022-10-18T03:23:31.901Z,66.88
2022-10-18T03:25:59.975Z,66.96
2022-10-18T03:28:28.136Z,66.77
2022-10-18T03:31:04.603Z,66.93
2022-10-18T03:33:33.400Z,66.98
2022-10-18T03:36:01.476Z,66.99
2022-10-18T03:38:29.443Z,67.09
2022-10-18T03:40:57.515Z,66.92
2022-10-18T03:43:25.483Z,66.93
2022-10-18T03:45:53.554Z,66.99
2022-10-18T03:48:21.525Z,67.08
2022-10-18T03:50:49.492Z,67.19
2022-10-18T03:53:17.568Z,67.33
2022-10-18T03:55:45.532Z,67.27
2022-10-18T03:58:13.605Z,67.18
2022-10-18T04:00:41.676Z,67.01
2022-10-18T04:03:10.259Z,67.17
2022-10-18T04:05:38.331Z,67.36
2022-10-18T04:08:06.402Z,67.41
2022-10-18T04:10:34.371Z,67.40
2022-10-18T04:13:02.341Z,67.35
2022-10-18T04:15:30.412Z,67.40
2022-10-18T04:17:58.674Z,67.62
2022-10-18T04:20:27.528Z,67.72
2022-10-18T04:22:57.697Z,67.75
2022-10-18T04:25:26.076Z,67.74
2022-10-18T04:27:54.045Z,67.75
2022-10-18T04:30:22.014Z,67.65
2022-10-18T04:32:49.982Z,67.65
2022-10-18T04:35:18.159Z,67.84
2022-10-18T04:37:46.126Z,67.94
2022-10-18T04:40:14.094Z,67.93
2022-10-18T04:42:42.063Z,67.97
2022-10-18T04:45:11.239Z,68.01
2022-10-18T04:47:39.436Z,68.03
2022-10-18T04:50:08.127Z,68.23
2022-10-18T04:52:36.162Z,68.22
2022-10-18T04:55:04.820Z,68.07
2022-10-18T04:57:33.046Z,68.20
2022-10-18T05:00:01.347Z,68.20
2022-10-18T05:02:29.712Z,68.32
2022-10-18T05:04:57.984Z,68.06
2022-10-18T05:07:26.157Z,68.10
2022-10-18T05:09:54.227Z,68.20
2022-10-18T05:12:22.606Z,68.49
2022-10-18T05:14:50.677Z,68.59
2022-10-18T05:17:18.670Z,68.28
2022-10-18T05:19:46.671Z,68.52
2022-10-18T05:22:15.000Z,68.51
2022-10-18T05:24:42.963Z,68.69
2022-10-18T05:27:11.342Z,68.81
2022-10-18T05:29:39.312Z,68.82
2022-10-18T05:32:07.279Z,68.61
2022-10-18T05:34:35.454Z,68.83
2022-10-18T05:37:03.525Z,68.88
2022-10-18T05:39:31.598Z,69.01
2022-10-18T05:42:00.282Z,68.84
2022-10-18T05:44:28.363Z,68.70
2022-10-18T05:46:56.424Z,68.79
2022-10-18T05:49:24.598Z,68.90
2022-10-18T05:51:52.773Z,69.00
2022-10-18T05:54:21.253Z,68.98
2022-10-18T05:56:49.222Z,69.09
2022-10-18T05:59:17.200Z,69.01
2022-10-18T06:01:45.776Z,69.09
2022-10-18T06:04:13.743Z,68.95
2022-10-18T06:06:41.818Z,68.85
2022-10-18T06:09:10.195Z,69.17
2022-10-18T06:11:38.274Z,69.08
2022-10-18T06:14:07.976Z,68.83
2022-10-18T06:19:05.346Z,68.85
2022-10-18T06:21:33.417Z,69.06
2022-10-18T06:24:01.489Z,69.00
2022-10-18T06:26:29.663Z,68.77
2022-10-18T06:28:57.796Z,68.87
2022-10-18T06:31:26.113Z,68.77
2022-10-18T06:33:57.098Z,68.76
2022-10-18T06:36:25.534Z,68.74
2022-10-18T06:38:54.659Z,68.78
2022-10-18T06:41:23.314Z,68.78
2022-10-18T06:43:53.715Z,68.71
2022-10-18T06:46:21.810Z,68.48
2022-10-18T06:48:49.885Z,68.59
2022-10-18T06:51:18.569Z,68.76
2022-10-18T06:53:59.104Z,68.67
2022-10-18T06:56:27.818Z,68.77
2022-10-18T06:58:55.806Z,68.74
2022-10-18T07:01:23.915Z,68.66
2022-10-18T07:03:53.643Z,68.68
2022-10-18T07:06:23.585Z,68.62
2022-10-18T07:08:55.446Z,68.70
2022-10-18T07:11:26.355Z,68.57
2022-10-18T07:14:01.008Z,68.66
2022-10-18T07:16:29.539Z,68.88
2022-10-18T07:18:57.663Z,68.81
2022-10-18T07:21:26.863Z,68.61
2022-10-18T07:23:56.775Z,68.51
2022-10-18T07:26:30.791Z,68.48
2022-10-18T07:29:02.531Z,68.52
2022-10-18T07:31:30.616Z,68.40
2022-10-18T07:33:58.789Z,68.43
2022-10-18T07:36:27.224Z,68.41
2022-10-18T07:38:55.241Z,68.39
2022-10-18T07:41:23.516Z,68.27
2022-10-18T07:43:53.125Z,67.96
2022-10-18T07:46:22.526Z,68.13
2022-10-18T07:48:51.550Z,67.95
2022-10-18T07:51:22.559Z,67.84
2022-10-18T07:53:50.735Z,67.89
2022-10-18T07:56:21.951Z,67.73
2022-10-18T07:58:52.819Z,67.62
2022-10-18T08:01:22.664Z,67.35
2022-10-18T08:03:51.594Z,67.15
2022-10-18T08:06:21.292Z,67.27
2022-10-18T08:08:49.714Z,67.33
2022-10-18T08:11:21.568Z,67.40
2022-10-18T08:13:49.846Z,67.24
2022-10-18T08:16:35.738Z,66.88
2022-10-18T08:19:04.523Z,66.50
2022-10-18T08:21:32.705Z,66.54
2022-10-18T08:24:00.671Z,66.38
2022-10-18T08:26:28.634Z,66.16
2022-10-18T08:29:17.746Z,66.22
2022-10-18T08:31:44.744Z,66.16
2022-10-18T08:34:18.715Z,65.84
2022-10-18T08:36:47.851Z,65.68
2022-10-18T08:39:15.819Z,65.39
2022-10-18T08:41:54.336Z,65.31
2022-10-18T08:44:30.606Z,64.84
2022-10-18T08:47:11.679Z,64.93
2022-10-18T08:49:51.039Z,64.27
2022-10-18T08:52:45.244Z,64.04
2022-10-18T08:55:27.806Z,63.77
2022-10-18T08:57:58.290Z,63.76
2022-10-18T09:00:34.703Z,63.47
2022-10-18T09:03:40.928Z,63.15
2022-10-18T09:06:25.526Z,63.26
2022-10-18T09:09:08.931Z,62.96
2022-10-18T09:12:32.895Z,62.63
2022-10-18T09:15:20.569Z,62.41
2022-10-18T09:17:54.480Z,62.44
2022-10-18T09:20:46.613Z,61.95
2022-10-18T09:23:23.872Z,61.88
2022-10-18T09:26:00.857Z,61.62
2022-10-18T09:28:58.261Z,61.16
2022-10-18T09:31:32.558Z,60.51
2022-10-18T09:34:08.616Z,60.27
2022-10-18T09:36:39.113Z,59.95
2022-10-18T09:39:12.543Z,59.34
2022-10-18T09:41:49.827Z,59.61
2022-10-18T09:44:25.682Z,59.26
2022-10-18T09:47:02.768Z,59.06
2022-10-18T09:49:40.564Z,58.70
2022-10-18T09:52:33.899Z,59.02
2022-10-18T09:55:13.673Z,59.23
2022-10-18T09:57:46.968Z,59.13
2022-10-18T10:00:48.833Z,59.17
2022-10-18T10:03:17.107Z,58.67
2022-10-18T10:05:45.920Z,58.56
2022-10-18T10:08:13.967Z,57.83
2022-10-18T10:10:47.574Z,57.84
2022-10-18T10:13:24.547Z,57.64
2022-10-18T10:16:00.400Z,57.31
2022-10-18T10:18:34.514Z,57.63
2022-10-18T10:21:15.184Z,57.34
2022-10-18T10:23:54.106Z,57.07
2022-10-18T10:26:23.920Z,56.82
2022-10-18T10:28:52.468Z,56.35
2022-10-18T10:31:32.139Z,56.59
2022-10-18T10:34:03.189Z,56.24
2022-10-18T10:36:32.789Z,55.69
2022-10-18T10:39:12.420Z,55.37
2022-10-18T10:41:41.523Z,54.65
2022-10-18T10:44:34.588Z,54.89
2022-10-18T10:47:03.169Z,55.18
2022-10-18T10:49:46.193Z,55.18
2022-10-18T10:52:27.243Z,55.15
2022-10-18T10:55:23.595Z,55.11
2022-10-18T10:57:56.419Z,54.83
2022-10-18T11:00:39.922Z,54.80
2022-10-18T11:03:28.396Z,54.55
2022-10-18T11:06:01.086Z,54.47
2022-10-18T11:08:31.221Z,54.03
2022-10-18T11:11:16.918Z,53.79
2022-10-18T11:13:57.057Z,54.06
2022-10-18T11:17:22.321Z,54.00
2022-10-18T11:19:56.228Z,53.59
2022-10-18T11:22:29.143Z,53.59
2022-10-18T11:24:57.491Z,53.72
2022-10-18T11:27:38.157Z,53.55
2022-10-18T11:30:21.284Z,53.76
2022-10-18T11:33:10.346Z,53.74
2022-10-18T11:36:03.928Z,54.30
2022-10-18T11:38:47.346Z,54.20
2022-10-18T11:41:27.296Z,54.12
2022-10-18T11:44:03.669Z,53.90
2022-10-18T11:46:57.026Z,54.05
2022-10-18T11:49:45.168Z,53.86
2022-10-18T11:52:33.207Z,53.71
2022-10-18T11:55:16.230Z,53.81
2022-10-18T11:57:57.036Z,53.54
2022-10-18T12:00:39.508Z,53.58
2022-10-18T12:03:36.252Z,53.37
2022-10-18T12:06:12.486Z,53.25
2022-10-18T12:08:46.631Z,53.65
2022-10-18T12:11:30.980Z,53.34
2022-10-18T12:14:21.683Z,53.54
2022-10-18T12:16:53.606Z,53.48
2022-10-18T12:19:30.114Z,53.03
2022-10-18T12:22:11.191Z,53.21
2022-10-18T12:24:39.895Z,52.68
2022-10-18T12:27:13.580Z,52.98
2022-10-18T12:29:53.837Z,52.92
2022-10-18T12:32:27.745Z,53.13
2022-10-18T12:35:04.929Z,53.44
2022-10-18T12:37:57.996Z,53.59
2022-10-18T12:40:32.714Z,53.32
2022-10-18T12:43:09.471Z,53.46
2022-10-18T12:45:51.083Z,53.47
2022-10-18T12:48:42.661Z,53.38
2022-10-18T12:51:17.838Z,53.56
2022-10-18T12:53:52.875Z,53.47
2022-10-18T12:56:29.862Z,53.51
2022-10-18T12:59:16.166Z,53.40
2022-10-18T13:01:53.415Z,52.94
2022-10-18T13:04:27.568Z,52.81
2022-10-18T13:07:03.127Z,53.03
2022-10-18T13:09:39.260Z,53.02
2022-10-18T13:12:10.204Z,52.89
2022-10-18T13:15:25.594Z,53.17
2022-10-18T13:18:19.764Z,53.13
2022-10-18T13:21:03.297Z,53.23
2022-10-18T13:23:43.251Z,53.07
2022-10-18T13:26:32.208Z,53.25
2022-10-18T13:29:09.374Z,53.30
2022-10-18T13:31:37.771Z,53.21
2022-10-18T13:34:28.252Z,52.89
2022-10-18T13:37:06.683Z,52.80
2022-10-18T13:39:35.292Z,53.23
2022-10-18T13:42:03.234Z,53.45
2022-10-18T13:44:40.369Z,52.81
2022-10-18T13:47:32.740Z,52.87
2022-10-18T13:50:03.633Z,52.72
2022-10-18T13:52:44.160Z,52.51
2022-10-18T13:55:36.296Z,52.54
2022-10-18T13:59:05.871Z,52.77
2022-10-18T14:01:54.004Z,52.90
2022-10-18T14:05:16.583Z,52.83
2022-10-18T14:07:51.396Z,53.02
2022-10-18T14:11:03.274Z,52.60
2022-10-18T14:13:43.792Z,52.78
2022-10-18T14:16:50.365Z,52.79
2022-10-18T14:19:39.610Z,52.49
2022-10-18T14:22:11.903Z,52.36
2022-10-18T14:24:45.818Z,52.38
2022-10-18T14:27:34.601Z,52.39
2022-10-18T14:30:11.241Z,52.75
2022-10-18T14:32:48.117Z,53.00
2022-10-18T14:35:38.388Z,53.15
2022-10-18T14:38:13.965Z,53.34
2022-10-18T14:40:42.028Z,53.30
2022-10-18T14:43:14.095Z,53.35
2022-10-18T14:45:43.189Z,53.32
2022-10-18T14:48:22.083Z,53.19
2022-10-18T14:50:59.504Z,52.94
2022-10-18T14:53:39.454Z,52.73
2022-10-18T14:56:08.378Z,52.83
2022-10-18T14:58:38.262Z,52.90
2022-10-18T15:01:06.811Z,53.16
2022-10-18T15:03:36.141Z,53.69
2022-10-18T15:06:06.020Z,54.10
2022-10-18T15:08:40.581Z,54.41
2022-10-18T15:11:13.353Z,54.85
2022-10-18T15:13:53.722Z,55.15
2022-10-18T15:16:26.271Z,55.28
2022-10-18T15:19:07.990Z,55.59
2022-10-18T15:21:36.472Z,56.02
2022-10-18T15:24:26.454Z,55.90
2022-10-18T15:26:56.779Z,55.93
2022-10-18T15:29:25.142Z,56.12
2022-10-18T15:31:53.127Z,56.36
2022-10-18T15:34:27.937Z,56.75
2022-10-18T15:36:57.031Z,56.61
2022-10-18T15:39:27.989Z,56.57
2022-10-18T15:41:58.626Z,56.85
2022-10-18T15:44:34.890Z,57.08
2022-10-18T15:47:12.172Z,57.04
2022-10-18T15:49:46.694Z,57.13
2022-10-18T15:52:38.165Z,57.25
2022-10-18T15:55:45.412Z,57.77
2022-10-18T15:58:46.118Z,57.84
2022-10-18T16:01:23.467Z,58.03
2022-10-18T16:03:52.117Z,58.32
2022-10-18T16:06:20.290Z,58.57
2022-10-18T16:08:51.433Z,58.89
2022-10-18T16:11:25.036Z,58.88
2022-10-18T16:13:56.529Z,59.19
2022-10-18T16:16:29.470Z,59.27
2022-10-18T16:18:58.053Z,59.27
2022-10-18T16:21:32.066Z,59.37
2022-10-18T16:24:00.240Z,59.55
2022-10-18T16:26:29.418Z,59.79
2022-10-18T16:28:58.895Z,60.09
2022-10-18T16:31:29.982Z,60.29
2022-10-18T16:33:59.384Z,60.47
2022-10-18T16:36:30.238Z,60.67
2022-10-18T16:39:01.056Z,60.72
2022-10-18T16:41:29.249Z,60.83
2022-10-18T16:43:57.235Z,61.05
2022-10-18T16:46:31.825Z,61.06
2022-10-18T16:49:00.870Z,61.13
2022-10-18T16:51:29.295Z,61.19
2022-10-18T16:53:57.473Z,61.15
2022-10-18T16:56:31.689Z,61.14
2022-10-18T16:59:00.475Z,61.21
2022-10-18T17:01:28.508Z,61.15
2022-10-18T17:03:56.619Z,61.27
2022-10-18T17:06:28.073Z,61.36
2022-10-18T17:08:57.659Z,61.25
2022-10-18T17:11:28.514Z,61.24
2022-10-18T17:13:56.592Z,61.19
2022-10-18T17:16:30.403Z,61.27
2022-10-18T17:19:02.255Z,61.51
2022-10-18T17:21:31.612Z,61.72
2022-10-18T17:24:02.388Z,61.91
2022-10-18T17:26:30.829Z,62.02
2022-10-18T17:29:05.022Z,62.11
2022-10-18T17:31:33.470Z,62.13
2022-10-18T17:34:02.430Z,61.84
2022-10-18T17:36:32.580Z,61.47
2022-10-18T17:39:00.953Z,60.95
2022-10-18T17:41:29.429Z,60.60
2022-10-18T17:43:57.506Z,60.34
2022-10-18T17:46:25.781Z,59.73
2022-10-18T17:48:54.160Z,59.50
2022-10-18T17:51:22.643Z,59.11
2022-10-18T17:53:50.610Z,58.77
2022-10-18T17:56:18.784Z,58.53
2022-10-18T17:58:51.157Z,58.43
2022-10-18T18:01:22.219Z,58.14
2022-10-18T18:03:55.901Z,57.94
2022-10-18T18:06:33.991Z,57.82
2022-10-18T18:09:08.502Z,57.35
2022-10-18T18:11:38.446Z,57.29
2022-10-18T18:14:10.105Z,57.39
2022-10-18T18:16:38.858Z,56.98
2022-10-18T18:19:09.647Z,57.00
2022-10-18T18:21:39.434Z,56.93
2022-10-18T18:24:08.305Z,56.69
2022-10-18T18:26:37.318Z,56.65
2022-10-18T18:29:05.350Z,56.79
2022-10-18T18:31:39.936Z,56.64
2022-10-18T18:34:09.710Z,56.45
2022-10-18T18:36:38.718Z,56.12
2022-10-18T18:39:09.067Z,55.92
2022-10-18T18:41:38.594Z,55.92
2022-10-18T18:44:06.722Z,56.02
2022-10-18T18:46:39.706Z,55.71
2022-10-18T18:49:08.539Z,55.65
2022-10-18T18:51:40.764Z,55.72
2022-10-18T18:54:11.194Z,55.86
2022-10-18T18:56:39.262Z,55.82
2022-10-18T18:59:07.741Z,56.00
2022-10-18T19:01:37.823Z,55.91
2022-10-18T19:04:08.084Z,55.97
2022-10-18T19:06:38.920Z,55.97
2022-10-18T19:09:18.871Z,56.14
2022-10-18T19:11:48.067Z,55.99
2022-10-18T19:14:16.504Z,55.92
2022-10-18T19:16:50.037Z,56.03
2022-10-18T19:19:21.396Z,55.87
2022-10-18T19:21:52.437Z,56.04
2022-10-18T19:24:22.047Z,56.14
2022-10-18T19:26:53.086Z,56.07
2022-10-18T19:29:25.751Z,55.89
2022-10-18T19:31:56.602Z,55.92
2022-10-18T19:34:26.619Z,55.99
2022-10-18T19:36:54.894Z,56.09
2022-10-18T19:39:24.297Z,56.06
2022-10-18T19:41:58.102Z,56.12
2022-10-18T19:44:30.068Z,56.17
2022-10-18T19:46:58.957Z,56.38
2022-10-18T19:49:28.842Z,56.31
2022-10-18T19:51:57.556Z,56.44
2022-10-18T19:54:26.857Z,56.81
2022-10-18T19:56:54.927Z,56.96
2022-10-18T19:59:24.232Z,57.06
2022-10-18T20:01:52.401Z,57.19
2022-10-18T20:04:20.577Z,57.34
2022-10-18T20:06:50.161Z,57.38
2022-10-18T20:09:20.653Z,57.59
2022-10-18T20:11:49.000Z,57.61
2022-10-18T20:14:17.063Z,57.71
2022-10-18T20:16:45.133Z,57.82
2022-10-18T20:19:13.203Z,57.93
2022-10-18T20:21:41.272Z,58.03
2022-10-18T20:24:10.781Z,58.12
2022-10-18T20:26:39.709Z,58.21
2022-10-18T20:29:08.320Z,58.36
2022-10-18T20:31:39.140Z,58.60
2022-10-18T20:34:10.644Z,58.55
2022-10-18T20:36:39.226Z,58.63
2022-10-18T20:39:07.998Z,58.85
2022-10-18T20:41:38.747Z,59.00
2022-10-18T20:44:11.836Z,59.10
2022-10-18T20:46:40.415Z,59.28
2022-10-18T20:49:10.744Z,59.30
2022-10-18T20:51:38.818Z,59.44
2022-10-18T20:54:09.438Z,59.55
2022-10-18T20:56:38.969Z,59.83
2022-10-18T20:59:10.023Z,60.06
2022-10-18T21:01:39.550Z,60.83
2022-10-18T21:04:10.233Z,61.41
2022-10-18T21:06:41.957Z,62.37
2022-10-18T21:09:12.928Z,62.40
2022-10-18T21:11:45.101Z,63.68
2022-10-18T21:14:15.871Z,64.49
2022-10-18T21:16:44.644Z,65.01
2022-10-18T21:19:14.328Z,66.00
2022-10-18T21:21:44.654Z,67.08
2022-10-18T21:24:14.050Z,67.21
2022-10-18T21:26:42.434Z,67.69
2022-10-18T21:29:11.785Z,67.29
2022-10-18T21:31:41.648Z,68.29
2022-10-18T21:34:15.943Z,68.94
2022-10-18T21:36:46.187Z,68.35
2022-10-18T21:39:18.006Z,68.80
2022-10-18T21:41:46.598Z,69.05
2022-10-18T21:44:15.009Z,68.47
2022-10-18T21:46:43.420Z,68.47
2022-10-18T21:49:11.447Z,68.75
2022-10-18T21:51:40.018Z,69.06
2022-10-18T21:54:12.006Z,69.49
2022-10-18T21:56:40.486Z,69.39
2022-10-18T21:59:11.117Z,69.79
2022-10-18T22:01:40.216Z,69.76
2022-10-18T22:04:19.363Z,70.06
2022-10-18T22:06:47.416Z,70.09
2022-10-18T22:09:15.795Z,70.29
2022-10-18T22:11:47.963Z,70.13
2022-10-18T22:14:16.033Z,70.57
2022-10-18T22:16:44.001Z,70.88
2022-10-18T22:19:12.278Z,71.82
2022-10-18T22:21:40.349Z,72.37
2022-10-18T22:24:09.551Z,72.06
2022-10-18T22:26:40.178Z,72.31
2022-10-18T22:29:14.702Z,72.91
2022-10-18T22:32:02.027Z,72.94
2022-10-18T22:34:30.094Z,73.34
2022-10-18T22:36:58.166Z,73.55
2022-10-18T22:39:26.136Z,73.19
2022-10-18T22:41:56.563Z,73.32
2022-10-18T22:44:27.064Z,73.58
2022-10-18T22:46:55.061Z,73.88
2022-10-18T22:49:23.135Z,73.61
2022-10-18T22:51:51.202Z,73.72
2022-10-18T22:54:19.273Z,73.66
2022-10-18T22:56:47.345Z,73.94
2022-10-18T22:59:15.422Z,74.10
2022-10-18T23:01:43.386Z,74.20
2022-10-18T23:04:11.457Z,74.38
2022-10-18T23:06:40.027Z,74.13
2022-10-18T23:09:10.882Z,74.08
2022-10-18T23:11:39.059Z,74.30
2022-10-18T23:14:07.328Z,74.53
2022-10-18T23:16:35.785Z,74.65
2022-10-18T23:19:04.400Z,74.77
2022-10-18T23:21:33.998Z,74.62
2022-10-18T23:24:01.969Z,74.74
2022-10-18T23:26:29.936Z,74.94
2022-10-18T23:28:58.061Z,74.90
2022-10-18T23:31:33.131Z,75.09
2022-10-18T23:34:03.777Z,74.95
2022-10-18T23:36:33.877Z,74.87
2022-10-18T23:39:03.594Z,75.11
2022-10-18T23:41:31.574Z,75.13
2022-10-18T23:43:59.747Z,75.25
2022-10-18T23:46:28.536Z,75.21
2022-10-18T23:48:56.505Z,75.35
2022-10-18T23:51:24.474Z,75.22
2022-10-18T23:53:52.545Z,75.38
2022-10-18T23:56:20.617Z,75.63
2022-10-18T23:58:48.586Z,75.51
